^^
Station Historical Data
Daily Summary for July 7, 2017 Units:  English    Metric   Both
« Previous Day
Next Day »
Daily Weekly Monthly Yearly Custom
  High: Low: Average:
Temperature: 80.7 °F 66.0 °F 70.8 °F
Dew Point: 70.3 °F 58.9 °F 66.1 °F
Humidity: 97% 63% 86%
Wind Speed: 5.0mph 0.0mph 0.4mph
Wind Gust: 12.0mph - -
Wind- - WSW
Pressure: 29.98 in 29.72 in -
Precipitation: 2.04 in    
Historical Graphs
 
 
Tabular Data for July 7, 2017
Time Temperature Dew Point Pressure Wind Wind Speed Wind Gust Humidity Rainfall Rate (Hourly) Conditions
00:00 69.2 °F 59.0 °F 29.98 in Calm   1.0 mph 70% 0.00 in BKN
00:15 69.1 °F 59.3 °F 29.98 in Calm   2.0 mph 71% 0.00 in BKN
00:30 68.9 °F 59.5 °F 29.97 in Calm     72% 0.00 in BKN
00:45 68.6 °F 59.6 °F 29.97 in Calm     73% 0.00 in BKN
01:00 68.4 °F 59.4 °F 29.96 in Calm   2.0 mph 73% 0.00 in BKN
01:15 68.3 °F 59.3 °F 29.95 in Calm   1.0 mph 73% 0.00 in BKN
01:30 68.3 °F 58.9 °F 29.95 in Calm   3.0 mph 72% 0.00 in BKN
01:45 68.3 °F 59.3 °F 29.94 in Calm   1.0 mph 73% 0.00 in BKN
02:00 68.3 °F 59.7 °F 29.94 in Calm   2.0 mph 74% 0.00 in BKN
02:15 68.3 °F 60.1 °F 29.93 in Calm   2.0 mph 75% 0.00 in BKN
02:30 68.3 °F 60.4 °F 29.93 in Calm   2.0 mph 76% 0.00 in BKN
02:45 68.3 °F 60.8 °F 29.92 in Calm   1.0 mph 77% 0.00 in BKN
03:15 68.1 °F 61.3 °F 29.91 in Calm   2.0 mph 79% 0.00 in BKN
03:30 68.0 °F 62.0 °F 29.90 in Calm   3.0 mph 81% 0.00 in BKN
03:45 67.5 °F 62.9 °F 29.89 in Calm   1.0 mph 85% 0.00 in BKN
04:00 67.0 °F 62.7 °F 29.89 in Calm   1.0 mph 86% 0.00 in BKN
04:15 66.8 °F 63.1 °F 29.88 in Calm   1.0 mph 88% 0.00 in -DZ
04:30 67.1 °F 63.7 °F 29.88 in Calm   1.0 mph 89% 0.00 in -DZ
05:00 67.6 °F 64.6 °F 29.87 in Calm   1.0 mph 90% 0.00 in -DZ
05:15 67.7 °F 65.0 °F 29.86 in NNW 1.0 mph 3.0 mph 91% 0.00 in -DZ
05:30 67.8 °F 65.4 °F 29.86 in Calm   2.0 mph 92% 0.00 in -DZ
05:45 67.8 °F 65.4 °F 29.85 in Calm   2.0 mph 92% 0.00 in -DZ
06:00 67.8 °F 65.7 °F 29.85 in Calm   2.0 mph 93% 0.00 in -DZ
06:15 67.9 °F 65.8 °F 29.85 in Calm   3.0 mph 93% 0.00 in OVC
06:30 67.9 °F 65.8 °F 29.85 in Calm   2.0 mph 93% 0.00 in OVC
06:45 68.0 °F 66.2 °F 29.84 in Calm   1.0 mph 94% 0.00 in OVC
07:00 68.1 °F 66.3 °F 29.84 in Calm   2.0 mph 94% 0.00 in OVC
07:15 68.3 °F 66.5 °F 29.83 in Calm   3.0 mph 94% 0.00 in OVC
07:30 68.3 °F 66.5 °F 29.83 in Calm   3.0 mph 94% 0.01 in RA
07:45 68.3 °F 66.8 °F 29.82 in Calm   2.0 mph 95% 0.01 in RA
08:00 68.3 °F 66.8 °F 29.81 in Calm   2.0 mph 95% 0.00 in OVC
08:15 68.4 °F 66.9 °F 29.81 in Calm   2.0 mph 95% 0.01 in -RA
08:32 68.5 °F 67.0 °F 29.81 in WSW 1.0 mph 5.0 mph 95% 0.00 in -RA
08:45 68.5 °F 67.0 °F 29.80 in Calm   3.0 mph 95% 0.01 in -RA
09:00 68.5 °F 67.0 °F 29.80 in Calm   2.0 mph 95% 0.00 in -RA
09:15 68.2 °F 66.7 °F 29.80 in Calm   7.0 mph 95% 0.01 in -RA
09:30 67.3 °F 65.8 °F 29.80 in Calm   7.0 mph 95% 0.11 in -RA
09:45 66.8 °F 65.6 °F 29.80 in WNW 1.0 mph 3.0 mph 96% 0.17 in -RA
10:00 66.4 °F 65.2 °F 29.80 in NW 2.0 mph 7.0 mph 96% 0.10 in -RA
10:30 66.0 °F 64.8 °F 29.80 in Calm   7.0 mph 96% 0.14 in -RA
10:45 66.2 °F 65.0 °F 29.79 in NW 1.0 mph 5.0 mph 96% 0.17 in -RA
11:00 66.4 °F 65.2 °F 29.80 in WNW 2.0 mph 7.0 mph 96% 0.19 in -RA
11:15 66.6 °F 65.7 °F 29.80 in NW 1.0 mph 5.0 mph 97% 0.30 in +RA
11:30 66.7 °F 65.8 °F 29.79 in NW 1.0 mph 5.0 mph 97% 0.23 in +RA
11:45 66.9 °F 66.0 °F 29.78 in Calm   7.0 mph 97% 0.14 in +RA
12:00 67.2 °F 66.3 °F 29.78 in WSW 2.0 mph 5.0 mph 97% 0.09 in +RA
12:15 67.9 °F 67.0 °F 29.78 in WNW 1.0 mph 5.0 mph 97% 0.05 in RA
12:30 68.5 °F 67.6 °F 29.78 in Calm   5.0 mph 97% 0.01 in OVC
12:45 68.7 °F 67.5 °F 29.77 in NNW 2.0 mph 5.0 mph 96% 0.01 in RA
13:00 69.7 °F 68.8 °F 29.78 in Calm   4.0 mph 97% 0.00 in OVC
13:15 70.2 °F 69.0 °F 29.77 in North 1.0 mph 6.0 mph 96% 0.00 in -RA
13:30 71.2 °F 69.7 °F 29.77 in NE 2.0 mph 9.0 mph 95% 0.00 in -RA
13:45 72.1 °F 70.3 °F 29.77 in NNW 1.0 mph 6.0 mph 94% 0.00 in -RA
14:00 71.9 °F 69.5 °F 29.77 in NW 1.0 mph 8.0 mph 92% 0.00 in -RA
14:15 72.7 °F 69.6 °F 29.76 in Calm   7.0 mph 90% 0.00 in BKN
14:30 73.2 °F 69.4 °F 29.77 in Calm   6.0 mph 88% 0.00 in BKN
14:45 74.3 °F 69.8 °F 29.77 in Calm   6.0 mph 86% 0.00 in BKN
15:00 74.1 °F 68.6 °F 29.76 in NNW 1.0 mph 8.0 mph 83% 0.00 in BKN
15:15 75.1 °F 69.2 °F 29.76 in NW 1.0 mph 6.0 mph 82% 0.00 in BKN
15:30 75.2 °F 69.0 °F 29.76 in Calm   5.0 mph 81% 0.00 in BKN
15:45 75.6 °F 67.9 °F 29.75 in NNW 2.0 mph 6.0 mph 77% 0.00 in BKN
16:00 76.2 °F 68.8 °F 29.74 in North 2.0 mph 7.0 mph 78% 0.00 in BKN
16:15 76.3 °F 68.6 °F 29.74 in Calm   8.0 mph 77% 0.00 in BKN
16:30 77.5 °F 69.4 °F 29.73 in WSW 1.0 mph 7.0 mph 76% 0.00 in BKN
16:45 77.9 °F 69.3 °F 29.74 in Calm   4.0 mph 75% 0.00 in BKN
17:00 78.9 °F 69.1 °F 29.73 in Calm   5.0 mph 72% 0.00 in BKN
17:15 79.7 °F 69.5 °F 29.73 in West 1.0 mph 4.0 mph 71% 0.00 in SCT
17:30 78.9 °F 68.3 °F 29.73 in Calm   4.0 mph 70% 0.00 in SCT
17:45 80.1 °F 68.2 °F 29.73 in Calm   2.0 mph 67% 0.00 in SCT
18:00 80.0 °F 68.1 °F 29.73 in Calm   4.0 mph 67% 0.00 in SCT
18:15 80.2 °F 66.9 °F 29.72 in Calm   4.0 mph 64% 0.00 in FEW
18:30 80.7 °F 66.9 °F 29.73 in Calm   3.0 mph 63% 0.00 in FEW
18:45 80.5 °F 67.2 °F 29.73 in WSW 2.0 mph 4.0 mph 64% 0.00 in FEW
19:00 80.4 °F 68.4 °F 29.73 in Calm   3.0 mph 67% 0.00 in FEW
19:15 80.3 °F 68.3 °F 29.73 in Calm   1.0 mph 67% 0.00 in FEW
19:30 76.3 °F 67.4 °F 29.73 in Calm   1.0 mph 74% 0.00 in FEW
19:45 74.7 °F 67.8 °F 29.74 in Calm     79% 0.00 in FEW
20:00 73.7 °F 67.9 °F 29.74 in Calm     82% 0.00 in FEW
20:15 73.4 °F 67.9 °F 29.74 in Calm     83% 0.00 in SCT
20:30 73.2 °F 68.4 °F 29.75 in Calm   1.0 mph 85% 0.03 in RA
20:45 71.1 °F 67.7 °F 29.74 in Calm   1.0 mph 89% 0.03 in RA
21:00 70.8 °F 68.0 °F 29.74 in Calm   8.0 mph 91% 0.00 in SCT
21:15 70.2 °F 67.2 °F 29.75 in Calm   2.0 mph 90% 0.00 in -RA
21:30 69.7 °F 67.3 °F 29.75 in Calm   2.0 mph 92% 0.00 in -RA
21:45 69.9 °F 67.2 °F 29.75 in Calm   1.0 mph 91% 0.00 in -RA
22:00 69.5 °F 67.1 °F 29.76 in Calm   1.0 mph 92% 0.00 in -RA
22:15 69.3 °F 67.2 °F 29.75 in Calm   1.0 mph 93% 0.00 in BKN
22:30 69.6 °F 67.5 °F 29.76 in Calm   2.0 mph 93% 0.01 in RA
22:45 69.9 °F 67.8 °F 29.75 in SSE 1.0 mph 6.0 mph 93% 0.01 in RA
23:00 69.8 °F 68.0 °F 29.76 in Calm   4.0 mph 94% 0.01 in BKN
23:15 69.8 °F 68.0 °F 29.76 in SSW 5.0 mph 12.0 mph 94% 0.03 in -RA
23:30 68.8 °F 67.0 °F 29.77 in SW 3.0 mph 10.0 mph 94% 0.06 in -RA
23:45 68.1 °F 66.3 °F 29.76 in SSW 1.0 mph 8.0 mph 94% 0.03 in -RA
TarryTown NY Weather
Compliments of Weather Underground - 1.5 mb